KOMA

Eppley Airfield Airport

Omaha, Nebraska, USA
METAR KOMA 180152Z 36005KT 10SM FEW045 SCT300 24/21 A3006 RMK AO2 SLP170 T02440206
Observed Flight Rules
Aug-18 @ 01:52 UTC (36 minutes ago) Visual Flight Rules
Wind Visibility Clouds
360° at 5 knots 10 miles
  • Few at 4,500' AGL
  • Scattered at 30,000' AGL
Temperatures Readings
Current 24°C / 75°F
Dewpoint 21°C / 70°F
Humidity 83%
Altimeter 30.06" Hg
Pressure 1017 hPa
Elevation 312
METAR KOMA 180152Z 36005KT 10SM FEW045 SCT300 24/21 A3006 RMK AO2 SLP170 T02440206
Observed Flight Rules
Aug-18 @ 01:52 UTC
(36 minutes ago)
VFR
Wind Visibility
360° at 5 knots 10 miles
Clouds
  • Few at 4,500' AGL
  • Scattered at 30,000' AGL
Temperature Dewpoint
24°C / 75°F 21°C / 70°F
Humidity Altimeter Pressure
83% 30.06" Hg 1017 hPa